sensor_id;sensor_type;location;lat;lon;timestamp;P1;durP1;ratioP1;P2;durP2;ratioP2
38487;SDS011;57384;51.986;4.458;2023-08-06T00:01:43;2.88;;;2.78;;
38487;SDS011;57384;51.986;4.458;2023-08-06T00:04:12;4.55;;;4.40;;
38487;SDS011;57384;51.986;4.458;2023-08-06T00:06:39;5.13;;;4.93;;
38487;SDS011;57384;51.986;4.458;2023-08-06T00:09:11;4.97;;;4.82;;
38487;SDS011;57384;51.986;4.458;2023-08-06T00:11:39;7.22;;;7.03;;
38487;SDS011;57384;51.986;4.458;2023-08-06T00:14:05;6.03;;;5.82;;
38487;SDS011;57384;51.986;4.458;2023-08-06T00:16:35;6.47;;;6.28;;
38487;SDS011;57384;51.986;4.458;2023-08-06T00:19:04;6.25;;;5.95;;
38487;SDS011;57384;51.986;4.458;2023-08-06T00:21:30;6.53;;;6.32;;
38487;SDS011;57384;51.986;4.458;2023-08-06T00:23:57;7.85;;;7.55;;
38487;SDS011;57384;51.986;4.458;2023-08-06T00:26:26;5.93;;;5.72;;
38487;SDS011;57384;51.986;4.458;2023-08-06T00:28:53;5.63;;;5.32;;
38487;SDS011;57384;51.986;4.458;2023-08-06T00:31:22;6.75;;;6.55;;
38487;SDS011;57384;51.986;4.458;2023-08-06T00:33:49;7.18;;;6.97;;
38487;SDS011;57384;51.986;4.458;2023-08-06T00:36:16;8.02;;;7.72;;
38487;SDS011;57384;51.986;4.458;2023-08-06T00:38:42;8.88;;;8.48;;
38487;SDS011;57384;51.986;4.458;2023-08-06T00:41:15;8.38;;;8.07;;
38487;SDS011;57384;51.986;4.458;2023-08-06T00:43:43;8.57;;;8.27;;
38487;SDS011;57384;51.986;4.458;2023-08-06T00:46:10;8.13;;;7.90;;
38487;SDS011;57384;51.986;4.458;2023-08-06T00:48:37;7.68;;;7.43;;
38487;SDS011;57384;51.986;4.458;2023-08-06T00:51:05;7.65;;;7.45;;
38487;SDS011;57384;51.986;4.458;2023-08-06T00:53:32;7.97;;;7.68;;
38487;SDS011;57384;51.986;4.458;2023-08-06T00:56:00;8.30;;;8.02;;
38487;SDS011;57384;51.986;4.458;2023-08-06T00:58:28;8.77;;;8.52;;
38487;SDS011;57384;51.986;4.458;2023-08-06T01:03:23;4.78;;;4.60;;
38487;SDS011;57384;51.986;4.458;2023-08-06T01:05:50;5.40;;;5.22;;
38487;SDS011;57384;51.986;4.458;2023-08-06T01:13:50;6.03;;;5.82;;
38487;SDS011;57384;51.986;4.458;2023-08-06T01:16:30;7.32;;;7.03;;
38487;SDS011;57384;51.986;4.458;2023-08-06T01:18:58;5.43;;;5.25;;
38487;SDS011;57384;51.986;4.458;2023-08-06T01:21:27;7.32;;;7.13;;
38487;SDS011;57384;51.986;4.458;2023-08-06T01:23:57;7.00;;;6.80;;
38487;SDS011;57384;51.986;4.458;2023-08-06T01:29:17;6.30;;;6.10;;
38487;SDS011;57384;51.986;4.458;2023-08-06T01:31:51;6.45;;;6.25;;
38487;SDS011;57384;51.986;4.458;2023-08-06T01:34:24;8.13;;;7.82;;
38487;SDS011;57384;51.986;4.458;2023-08-06T01:36:53;7.45;;;7.15;;
38487;SDS011;57384;51.986;4.458;2023-08-06T01:39:22;7.28;;;7.07;;
38487;SDS011;57384;51.986;4.458;2023-08-06T01:41:50;6.50;;;6.30;;
38487;SDS011;57384;51.986;4.458;2023-08-06T01:44:22;6.72;;;6.53;;
38487;SDS011;57384;51.986;4.458;2023-08-06T01:46:49;6.07;;;5.88;;
38487;SDS011;57384;51.986;4.458;2023-08-06T01:49:18;4.28;;;4.18;;
38487;SDS011;57384;51.986;4.458;2023-08-06T01:51:45;8.25;;;7.75;;
38487;SDS011;57384;51.986;4.458;2023-08-06T01:54:12;7.45;;;7.25;;
38487;SDS011;57384;51.986;4.458;2023-08-06T01:56:44;7.28;;;7.07;;
38487;SDS011;57384;51.986;4.458;2023-08-06T01:59:11;7.15;;;6.93;;
38487;SDS011;57384;51.986;4.458;2023-08-06T02:01:42;6.60;;;6.40;;
38487;SDS011;57384;51.986;4.458;2023-08-06T02:04:10;6.25;;;6.05;;
38487;SDS011;57384;51.986;4.458;2023-08-06T02:06:40;7.00;;;6.80;;
38487;SDS011;57384;51.986;4.458;2023-08-06T02:09:07;6.57;;;6.38;;
38487;SDS011;57384;51.986;4.458;2023-08-06T02:11:34;7.65;;;7.15;;
38487;SDS011;57384;51.986;4.458;2023-08-06T02:14:01;5.63;;;5.43;;
38487;SDS011;57384;51.986;4.458;2023-08-06T02:16:28;5.95;;;5.75;;
38487;SDS011;57384;51.986;4.458;2023-08-06T02:19:08;6.53;;;6.32;;
38487;SDS011;57384;51.986;4.458;2023-08-06T02:21:36;6.05;;;5.82;;
38487;SDS011;57384;51.986;4.458;2023-08-06T02:24:04;5.88;;;5.68;;
38487;SDS011;57384;51.986;4.458;2023-08-06T02:26:30;5.95;;;5.75;;
38487;SDS011;57384;51.986;4.458;2023-08-06T02:28:57;6.13;;;5.93;;
38487;SDS011;57384;51.986;4.458;2023-08-06T02:31:24;6.18;;;5.97;;
38487;SDS011;57384;51.986;4.458;2023-08-06T02:33:51;6.28;;;6.07;;
38487;SDS011;57384;51.986;4.458;2023-08-06T02:36:18;5.78;;;5.57;;
38487;SDS011;57384;51.986;4.458;2023-08-06T02:38:46;6.05;;;5.85;;
38487;SDS011;57384;51.986;4.458;2023-08-06T02:41:13;6.18;;;5.97;;
38487;SDS011;57384;51.986;4.458;2023-08-06T02:43:40;7.00;;;6.70;;
38487;SDS011;57384;51.986;4.458;2023-08-06T02:46:11;6.18;;;5.97;;
38487;SDS011;57384;51.986;4.458;2023-08-06T02:48:39;6.57;;;6.38;;
38487;SDS011;57384;51.986;4.458;2023-08-06T02:51:07;7.18;;;6.97;;
38487;SDS011;57384;51.986;4.458;2023-08-06T02:53:33;6.60;;;6.40;;
38487;SDS011;57384;51.986;4.458;2023-08-06T02:56:00;5.95;;;5.75;;
38487;SDS011;57384;51.986;4.458;2023-08-06T02:58:27;6.13;;;5.93;;
38487;SDS011;57384;51.986;4.458;2023-08-06T03:01:03;5.32;;;5.13;;
38487;SDS011;57384;51.986;4.458;2023-08-06T03:03:33;5.25;;;5.07;;
38487;SDS011;57384;51.986;4.458;2023-08-06T03:06:00;4.93;;;4.78;;
38487;SDS011;57384;51.986;4.458;2023-08-06T03:08:27;6.72;;;6.43;;
38487;SDS011;57384;51.986;4.458;2023-08-06T03:10:55;5.05;;;4.90;;
38487;SDS011;57384;51.986;4.458;2023-08-06T03:13:23;6.03;;;5.82;;
38487;SDS011;57384;51.986;4.458;2023-08-06T03:15:56;5.72;;;5.53;;
38487;SDS011;57384;51.986;4.458;2023-08-06T03:18:24;5.82;;;5.63;;
38487;SDS011;57384;51.986;4.458;2023-08-06T03:20:52;5.40;;;5.20;;
38487;SDS011;57384;51.986;4.458;2023-08-06T03:23:28;6.38;;;5.97;;
38487;SDS011;57384;51.986;4.458;2023-08-06T03:25:56;4.97;;;4.78;;
38487;SDS011;57384;51.986;4.458;2023-08-06T03:28:26;5.28;;;5.07;;
38487;SDS011;57384;51.986;4.458;2023-08-06T03:31:00;5.57;;;5.38;;
38487;SDS011;57384;51.986;4.458;2023-08-06T03:33:28;5.60;;;5.40;;
38487;SDS011;57384;51.986;4.458;2023-08-06T03:35:55;4.97;;;4.80;;
38487;SDS011;57384;51.986;4.458;2023-08-06T03:38:30;5.13;;;4.95;;
38487;SDS011;57384;51.986;4.458;2023-08-06T03:40:56;5.13;;;4.93;;
38487;SDS011;57384;51.986;4.458;2023-08-06T03:43:24;5.50;;;5.32;;
38487;SDS011;57384;51.986;4.458;2023-08-06T03:45:51;4.63;;;4.50;;
38487;SDS011;57384;51.986;4.458;2023-08-06T03:48:19;5.32;;;5.13;;
38487;SDS011;57384;51.986;4.458;2023-08-06T03:50:46;5.32;;;5.13;;
38487;SDS011;57384;51.986;4.458;2023-08-06T03:53:14;5.50;;;5.30;;
38487;SDS011;57384;51.986;4.458;2023-08-06T03:55:40;5.82;;;5.63;;
38487;SDS011;57384;51.986;4.458;2023-08-06T03:58:07;6.30;;;6.10;;
38487;SDS011;57384;51.986;4.458;2023-08-06T04:00:34;4.70;;;4.50;;
38487;SDS011;57384;51.986;4.458;2023-08-06T04:03:01;5.07;;;4.87;;
38487;SDS011;57384;51.986;4.458;2023-08-06T04:05:27;4.47;;;4.38;;
38487;SDS011;57384;51.986;4.458;2023-08-06T04:07:57;5.15;;;4.95;;
38487;SDS011;57384;51.986;4.458;2023-08-06T04:10:23;4.45;;;4.35;;
38487;SDS011;57384;51.986;4.458;2023-08-06T04:12:51;5.55;;;5.35;;
38487;SDS011;57384;51.986;4.458;2023-08-06T04:15:17;4.57;;;4.40;;
38487;SDS011;57384;51.986;4.458;2023-08-06T04:17:57;3.95;;;3.85;;
38487;SDS011;57384;51.986;4.458;2023-08-06T04:20:24;4.65;;;4.53;;
38487;SDS011;57384;51.986;4.458;2023-08-06T04:22:51;4.93;;;4.72;;
38487;SDS011;57384;51.986;4.458;2023-08-06T04:25:20;4.15;;;4.05;;
38487;SDS011;57384;51.986;4.458;2023-08-06T04:27:48;3.83;;;3.72;;
38487;SDS011;57384;51.986;4.458;2023-08-06T04:30:15;3.92;;;3.83;;
38487;SDS011;57384;51.986;4.458;2023-08-06T04:32:43;3.60;;;3.50;;
38487;SDS011;57384;51.986;4.458;2023-08-06T04:35:10;4.10;;;4.00;;
38487;SDS011;57384;51.986;4.458;2023-08-06T04:37:42;3.85;;;3.75;;
38487;SDS011;57384;51.986;4.458;2023-08-06T04:40:10;4.07;;;3.97;;
38487;SDS011;57384;51.986;4.458;2023-08-06T04:42:37;4.35;;;4.25;;
38487;SDS011;57384;51.986;4.458;2023-08-06T04:45:04;3.47;;;3.38;;
38487;SDS011;57384;51.986;4.458;2023-08-06T04:47:31;3.33;;;3.22;;
38487;SDS011;57384;51.986;4.458;2023-08-06T04:49:58;2.88;;;2.78;;
38487;SDS011;57384;51.986;4.458;2023-08-06T04:52:27;3.83;;;3.63;;
38487;SDS011;57384;51.986;4.458;2023-08-06T04:54:54;4.18;;;4.05;;
38487;SDS011;57384;51.986;4.458;2023-08-06T04:57:22;4.15;;;4.05;;
38487;SDS011;57384;51.986;4.458;2023-08-06T04:59:49;4.05;;;3.95;;
38487;SDS011;57384;51.986;4.458;2023-08-06T05:02:15;3.63;;;3.53;;
38487;SDS011;57384;51.986;4.458;2023-08-06T05:04:45;4.22;;;4.10;;
38487;SDS011;57384;51.986;4.458;2023-08-06T05:07:14;3.92;;;3.83;;
38487;SDS011;57384;51.986;4.458;2023-08-06T05:09:41;3.97;;;3.87;;
38487;SDS011;57384;51.986;4.458;2023-08-06T05:12:09;4.55;;;4.40;;
38487;SDS011;57384;51.986;4.458;2023-08-06T05:14:36;4.07;;;3.97;;
38487;SDS011;57384;51.986;4.458;2023-08-06T05:17:02;4.20;;;4.10;;
38487;SDS011;57384;51.986;4.458;2023-08-06T05:19:29;4.63;;;4.50;;
38487;SDS011;57384;51.986;4.458;2023-08-06T05:21:56;4.75;;;4.60;;
38487;SDS011;57384;51.986;4.458;2023-08-06T05:24:23;6.15;;;5.68;;
38487;SDS011;57384;51.986;4.458;2023-08-06T05:26:49;5.50;;;4.93;;
38487;SDS011;57384;51.986;4.458;2023-08-06T05:29:16;3.40;;;3.30;;
38487;SDS011;57384;51.986;4.458;2023-08-06T05:31:46;4.00;;;3.90;;
38487;SDS011;57384;51.986;4.458;2023-08-06T05:34:12;3.42;;;3.33;;
38487;SDS011;57384;51.986;4.458;2023-08-06T05:36:39;4.10;;;4.00;;
38487;SDS011;57384;51.986;4.458;2023-08-06T05:39:08;4.55;;;4.35;;
38487;SDS011;57384;51.986;4.458;2023-08-06T05:41:34;4.75;;;4.55;;
38487;SDS011;57384;51.986;4.458;2023-08-06T05:44:02;4.10;;;4.00;;
38487;SDS011;57384;51.986;4.458;2023-08-06T05:46:30;3.83;;;3.72;;
38487;SDS011;57384;51.986;4.458;2023-08-06T05:48:59;4.93;;;4.63;;
38487;SDS011;57384;51.986;4.458;2023-08-06T05:51:26;3.97;;;3.78;;
38487;SDS011;57384;51.986;4.458;2023-08-06T05:56:23;2.45;;;2.35;;
38487;SDS011;57384;51.986;4.458;2023-08-06T05:58:54;3.08;;;2.97;;
38487;SDS011;57384;51.986;4.458;2023-08-06T06:01:22;3.78;;;3.67;;
38487;SDS011;57384;51.986;4.458;2023-08-06T06:03:49;4.18;;;4.07;;
38487;SDS011;57384;51.986;4.458;2023-08-06T06:06:16;4.10;;;4.00;;
38487;SDS011;57384;51.986;4.458;2023-08-06T06:08:42;3.28;;;3.17;;
38487;SDS011;57384;51.986;4.458;2023-08-06T06:11:12;3.42;;;3.33;;
38487;SDS011;57384;51.986;4.458;2023-08-06T06:13:39;3.35;;;3.25;;
38487;SDS011;57384;51.986;4.458;2023-08-06T06:16:06;3.55;;;3.45;;
38487;SDS011;57384;51.986;4.458;2023-08-06T06:18:34;3.60;;;3.50;;
38487;SDS011;57384;51.986;4.458;2023-08-06T06:21:00;3.90;;;3.70;;
38487;SDS011;57384;51.986;4.458;2023-08-06T06:23:29;3.38;;;3.28;;
38487;SDS011;57384;51.986;4.458;2023-08-06T06:25:57;5.40;;;5.00;;
38487;SDS011;57384;51.986;4.458;2023-08-06T06:28:30;4.38;;;4.28;;
38487;SDS011;57384;51.986;4.458;2023-08-06T06:31:00;3.47;;;3.38;;
38487;SDS011;57384;51.986;4.458;2023-08-06T06:33:28;4.05;;;3.85;;
38487;SDS011;57384;51.986;4.458;2023-08-06T06:35:55;3.17;;;3.08;;
38487;SDS011;57384;51.986;4.458;2023-08-06T06:38:24;3.08;;;2.97;;
38487;SDS011;57384;51.986;4.458;2023-08-06T06:40:54;3.05;;;2.95;;
38487;SDS011;57384;51.986;4.458;2023-08-06T06:43:23;3.85;;;3.75;;
38487;SDS011;57384;51.986;4.458;2023-08-06T06:46:00;3.63;;;3.53;;
38487;SDS011;57384;51.986;4.458;2023-08-06T06:48:29;3.63;;;3.53;;
38487;SDS011;57384;51.986;4.458;2023-08-06T06:50:58;3.42;;;3.33;;
38487;SDS011;57384;51.986;4.458;2023-08-06T06:53:25;3.70;;;3.60;;
38487;SDS011;57384;51.986;4.458;2023-08-06T06:55:52;3.37;;;3.27;;
38487;SDS011;57384;51.986;4.458;2023-08-06T06:58:22;3.95;;;3.85;;
38487;SDS011;57384;51.986;4.458;2023-08-06T07:00:49;3.27;;;3.17;;
38487;SDS011;57384;51.986;4.458;2023-08-06T07:03:16;3.80;;;3.70;;
38487;SDS011;57384;51.986;4.458;2023-08-06T07:05:43;3.73;;;3.63;;
38487;SDS011;57384;51.986;4.458;2023-08-06T07:08:12;3.65;;;3.55;;
38487;SDS011;57384;51.986;4.458;2023-08-06T07:10:40;4.40;;;4.20;;
38487;SDS011;57384;51.986;4.458;2023-08-06T07:13:15;3.05;;;2.95;;
38487;SDS011;57384;51.986;4.458;2023-08-06T07:15:42;3.67;;;3.57;;
38487;SDS011;57384;51.986;4.458;2023-08-06T07:18:08;4.35;;;4.15;;
38487;SDS011;57384;51.986;4.458;2023-08-06T07:20:36;3.08;;;2.97;;
38487;SDS011;57384;51.986;4.458;2023-08-06T07:23:03;4.43;;;4.30;;
38487;SDS011;57384;51.986;4.458;2023-08-06T07:25:29;4.32;;;4.22;;
38487;SDS011;57384;51.986;4.458;2023-08-06T07:27:57;3.40;;;3.30;;
38487;SDS011;57384;51.986;4.458;2023-08-06T07:30:24;4.15;;;3.97;;
38487;SDS011;57384;51.986;4.458;2023-08-06T07:32:53;3.60;;;3.50;;
38487;SDS011;57384;51.986;4.458;2023-08-06T07:35:19;2.97;;;2.87;;
38487;SDS011;57384;51.986;4.458;2023-08-06T07:37:46;3.33;;;3.23;;
38487;SDS011;57384;51.986;4.458;2023-08-06T07:40:12;4.83;;;2.90;;
38487;SDS011;57384;51.986;4.458;2023-08-06T07:42:42;2.55;;;2.45;;
38487;SDS011;57384;51.986;4.458;2023-08-06T07:45:09;3.00;;;2.90;;
38487;SDS011;57384;51.986;4.458;2023-08-06T07:47:37;2.97;;;2.88;;
38487;SDS011;57384;51.986;4.458;2023-08-06T07:50:05;3.38;;;3.17;;
38487;SDS011;57384;51.986;4.458;2023-08-06T07:52:32;2.40;;;2.30;;
38487;SDS011;57384;51.986;4.458;2023-08-06T07:54:59;1.90;;;1.80;;
38487;SDS011;57384;51.986;4.458;2023-08-06T07:57:26;1.90;;;1.80;;
38487;SDS011;57384;51.986;4.458;2023-08-06T07:59:52;2.28;;;2.17;;
38487;SDS011;57384;51.986;4.458;2023-08-06T08:02:25;1.95;;;1.85;;
38487;SDS011;57384;51.986;4.458;2023-08-06T08:04:52;1.73;;;1.63;;
38487;SDS011;57384;51.986;4.458;2023-08-06T08:07:18;1.50;;;1.40;;
38487;SDS011;57384;51.986;4.458;2023-08-06T08:09:51;2.60;;;2.00;;
38487;SDS011;57384;51.986;4.458;2023-08-06T08:12:24;2.10;;;2.00;;
38487;SDS011;57384;51.986;4.458;2023-08-06T08:14:51;1.73;;;1.63;;
38487;SDS011;57384;51.986;4.458;2023-08-06T08:17:18;2.17;;;2.07;;
38487;SDS011;57384;51.986;4.458;2023-08-06T08:19:45;2.40;;;2.30;;
38487;SDS011;57384;51.986;4.458;2023-08-06T08:22:12;2.05;;;1.95;;
38487;SDS011;57384;51.986;4.458;2023-08-06T08:24:39;2.40;;;2.30;;
38487;SDS011;57384;51.986;4.458;2023-08-06T08:27:05;2.05;;;1.95;;
38487;SDS011;57384;51.986;4.458;2023-08-06T08:29:34;2.05;;;1.95;;
38487;SDS011;57384;51.986;4.458;2023-08-06T08:32:01;2.13;;;2.03;;
38487;SDS011;57384;51.986;4.458;2023-08-06T08:34:29;2.58;;;2.47;;
38487;SDS011;57384;51.986;4.458;2023-08-06T08:36:56;2.17;;;2.08;;
38487;SDS011;57384;51.986;4.458;2023-08-06T08:39:23;2.75;;;2.60;;
38487;SDS011;57384;51.986;4.458;2023-08-06T08:41:51;1.83;;;1.73;;
38487;SDS011;57384;51.986;4.458;2023-08-06T08:44:18;2.00;;;1.90;;
38487;SDS011;57384;51.986;4.458;2023-08-06T08:46:51;2.38;;;2.15;;
38487;SDS011;57384;51.986;4.458;2023-08-06T08:49:20;2.30;;;2.20;;
38487;SDS011;57384;51.986;4.458;2023-08-06T08:51:50;2.22;;;2.13;;
38487;SDS011;57384;51.986;4.458;2023-08-06T08:54:19;2.05;;;1.95;;
38487;SDS011;57384;51.986;4.458;2023-08-06T08:56:49;1.92;;;1.83;;
38487;SDS011;57384;51.986;4.458;2023-08-06T08:59:17;3.30;;;3.20;;
38487;SDS011;57384;51.986;4.458;2023-08-06T09:01:46;2.47;;;2.38;;
38487;SDS011;57384;51.986;4.458;2023-08-06T09:04:14;2.47;;;2.38;;
38487;SDS011;57384;51.986;4.458;2023-08-06T09:06:43;2.50;;;2.40;;
38487;SDS011;57384;51.986;4.458;2023-08-06T09:09:13;2.17;;;2.08;;
38487;SDS011;57384;51.986;4.458;2023-08-06T09:11:45;2.75;;;2.65;;
38487;SDS011;57384;51.986;4.458;2023-08-06T09:14:13;2.03;;;1.92;;
38487;SDS011;57384;51.986;4.458;2023-08-06T09:16:40;2.55;;;2.45;;
38487;SDS011;57384;51.986;4.458;2023-08-06T09:19:10;2.60;;;2.50;;
38487;SDS011;57384;51.986;4.458;2023-08-06T09:21:40;1.98;;;1.88;;
38487;SDS011;57384;51.986;4.458;2023-08-06T09:24:07;1.92;;;1.80;;
38487;SDS011;57384;51.986;4.458;2023-08-06T09:26:36;1.92;;;1.83;;
38487;SDS011;57384;51.986;4.458;2023-08-06T09:29:10;1.92;;;1.83;;
38487;SDS011;57384;51.986;4.458;2023-08-06T09:31:41;1.88;;;1.77;;
38487;SDS011;57384;51.986;4.458;2023-08-06T09:34:11;1.80;;;1.70;;
38487;SDS011;57384;51.986;4.458;2023-08-06T09:36:53;2.03;;;1.70;;
38487;SDS011;57384;51.986;4.458;2023-08-06T09:39:22;2.08;;;1.98;;
38487;SDS011;57384;51.986;4.458;2023-08-06T09:41:59;4.93;;;3.28;;
38487;SDS011;57384;51.986;4.458;2023-08-06T09:44:30;1.30;;;1.20;;
38487;SDS011;57384;51.986;4.458;2023-08-06T09:47:00;1.77;;;1.67;;
38487;SDS011;57384;51.986;4.458;2023-08-06T09:52:00;1.38;;;1.27;;
38487;SDS011;57384;51.986;4.458;2023-08-06T09:54:27;1.45;;;1.35;;
38487;SDS011;57384;51.986;4.458;2023-08-06T09:56:54;0.90;;;0.90;;
38487;SDS011;57384;51.986;4.458;2023-08-06T09:59:25;0.80;;;0.80;;
38487;SDS011;57384;51.986;4.458;2023-08-06T10:01:53;0.80;;;0.80;;
38487;SDS011;57384;51.986;4.458;2023-08-06T10:04:20;0.80;;;0.80;;
38487;SDS011;57384;51.986;4.458;2023-08-06T10:06:50;0.80;;;0.80;;
38487;SDS011;57384;51.986;4.458;2023-08-06T10:09:19;0.80;;;0.80;;
38487;SDS011;57384;51.986;4.458;2023-08-06T10:11:52;0.80;;;0.80;;
38487;SDS011;57384;51.986;4.458;2023-08-06T10:14:20;0.88;;;0.88;;
38487;SDS011;57384;51.986;4.458;2023-08-06T10:16:57;0.80;;;0.80;;
38487;SDS011;57384;51.986;4.458;2023-08-06T10:19:25;0.93;;;0.93;;
38487;SDS011;57384;51.986;4.458;2023-08-06T10:22:12;0.80;;;0.80;;
38487;SDS011;57384;51.986;4.458;2023-08-06T10:27:22;0.90;;;0.90;;
38487;SDS011;57384;51.986;4.458;2023-08-06T10:30:20;1.30;;;1.15;;
38487;SDS011;57384;51.986;4.458;2023-08-06T10:32:56;1.10;;;1.00;;
38487;SDS011;57384;51.986;4.458;2023-08-06T10:38:22;0.80;;;0.80;;
38487;SDS011;57384;51.986;4.458;2023-08-06T10:43:27;0.82;;;0.82;;
38487;SDS011;57384;51.986;4.458;2023-08-06T10:46:02;1.33;;;1.23;;
38487;SDS011;57384;51.986;4.458;2023-08-06T10:48:41;1.70;;;1.60;;
38487;SDS011;57384;51.986;4.458;2023-08-06T10:51:17;1.60;;;1.50;;
38487;SDS011;57384;51.986;4.458;2023-08-06T10:53:45;2.13;;;2.03;;
38487;SDS011;57384;51.986;4.458;2023-08-06T10:56:21;1.95;;;1.85;;
38487;SDS011;57384;51.986;4.458;2023-08-06T10:58:51;2.05;;;1.95;;
38487;SDS011;57384;51.986;4.458;2023-08-06T11:01:19;2.65;;;2.55;;
38487;SDS011;57384;51.986;4.458;2023-08-06T11:03:50;2.20;;;2.10;;
38487;SDS011;57384;51.986;4.458;2023-08-06T11:06:31;2.00;;;1.90;;
38487;SDS011;57384;51.986;4.458;2023-08-06T11:08:58;2.03;;;1.92;;
38487;SDS011;57384;51.986;4.458;2023-08-06T11:11:32;2.05;;;1.95;;
38487;SDS011;57384;51.986;4.458;2023-08-06T11:14:14;2.80;;;2.70;;
38487;SDS011;57384;51.986;4.458;2023-08-06T11:16:50;2.83;;;2.72;;
38487;SDS011;57384;51.986;4.458;2023-08-06T11:19:23;2.83;;;2.72;;
38487;SDS011;57384;51.986;4.458;2023-08-06T11:21:51;2.20;;;2.10;;
38487;SDS011;57384;51.986;4.458;2023-08-06T11:24:18;2.03;;;1.92;;
38487;SDS011;57384;51.986;4.458;2023-08-06T11:26:52;3.63;;;3.42;;
38487;SDS011;57384;51.986;4.458;2023-08-06T11:29:18;2.40;;;2.30;;
38487;SDS011;57384;51.986;4.458;2023-08-06T11:31:46;2.20;;;2.10;;
38487;SDS011;57384;51.986;4.458;2023-08-06T11:34:13;2.08;;;1.98;;
38487;SDS011;57384;51.986;4.458;2023-08-06T11:36:44;2.45;;;2.35;;
38487;SDS011;57384;51.986;4.458;2023-08-06T11:39:17;2.75;;;2.65;;
38487;SDS011;57384;51.986;4.458;2023-08-06T11:41:46;3.72;;;3.53;;
38487;SDS011;57384;51.986;4.458;2023-08-06T11:44:21;2.50;;;2.40;;
38487;SDS011;57384;51.986;4.458;2023-08-06T11:46:50;2.60;;;2.50;;
38487;SDS011;57384;51.986;4.458;2023-08-06T11:52:25;2.83;;;2.72;;
38487;SDS011;57384;51.986;4.458;2023-08-06T11:55:00;3.17;;;3.08;;
38487;SDS011;57384;51.986;4.458;2023-08-06T11:57:28;2.45;;;2.35;;
38487;SDS011;57384;51.986;4.458;2023-08-06T11:59:57;3.58;;;3.47;;
38487;SDS011;57384;51.986;4.458;2023-08-06T12:02:30;20.83;;;4.07;;
38487;SDS011;57384;51.986;4.458;2023-08-06T12:05:20;3.40;;;3.30;;
38487;SDS011;57384;51.986;4.458;2023-08-06T12:07:59;3.13;;;3.03;;
38487;SDS011;57384;51.986;4.458;2023-08-06T12:10:29;3.22;;;3.13;;
38487;SDS011;57384;51.986;4.458;2023-08-06T12:12:57;3.60;;;3.50;;
38487;SDS011;57384;51.986;4.458;2023-08-06T12:15:24;3.00;;;2.90;;
38487;SDS011;57384;51.986;4.458;2023-08-06T12:17:53;3.05;;;2.95;;
38487;SDS011;57384;51.986;4.458;2023-08-06T12:20:23;3.92;;;3.72;;
38487;SDS011;57384;51.986;4.458;2023-08-06T12:22:49;3.05;;;2.95;;
38487;SDS011;57384;51.986;4.458;2023-08-06T12:25:16;2.88;;;2.78;;
38487;SDS011;57384;51.986;4.458;2023-08-06T12:27:43;2.83;;;2.72;;
38487;SDS011;57384;51.986;4.458;2023-08-06T12:30:12;2.53;;;2.42;;
38487;SDS011;57384;51.986;4.458;2023-08-06T12:32:39;2.25;;;2.15;;
38487;SDS011;57384;51.986;4.458;2023-08-06T12:35:06;3.05;;;2.85;;
38487;SDS011;57384;51.986;4.458;2023-08-06T12:37:33;1.98;;;1.88;;
38487;SDS011;57384;51.986;4.458;2023-08-06T12:40:02;2.33;;;2.22;;
38487;SDS011;57384;51.986;4.458;2023-08-06T12:42:34;2.47;;;2.38;;
38487;SDS011;57384;51.986;4.458;2023-08-06T12:45:01;2.03;;;1.92;;
38487;SDS011;57384;51.986;4.458;2023-08-06T12:47:30;2.25;;;2.15;;
38487;SDS011;57384;51.986;4.458;2023-08-06T12:49:57;2.58;;;2.47;;
38487;SDS011;57384;51.986;4.458;2023-08-06T12:52:25;3.00;;;2.80;;
38487;SDS011;57384;51.986;4.458;2023-08-06T12:54:58;2.92;;;2.80;;
38487;SDS011;57384;51.986;4.458;2023-08-06T12:57:26;2.10;;;2.00;;
38487;SDS011;57384;51.986;4.458;2023-08-06T12:59:57;2.10;;;2.00;;
38487;SDS011;57384;51.986;4.458;2023-08-06T13:02:25;2.10;;;2.00;;
38487;SDS011;57384;51.986;4.458;2023-08-06T13:04:51;2.03;;;1.92;;
38487;SDS011;57384;51.986;4.458;2023-08-06T13:07:18;2.40;;;2.30;;
38487;SDS011;57384;51.986;4.458;2023-08-06T13:09:46;2.20;;;2.10;;
38487;SDS011;57384;51.986;4.458;2023-08-06T13:12:14;2.40;;;2.30;;
38487;SDS011;57384;51.986;4.458;2023-08-06T13:14:41;2.20;;;2.10;;
38487;SDS011;57384;51.986;4.458;2023-08-06T13:17:07;2.40;;;2.30;;
38487;SDS011;57384;51.986;4.458;2023-08-06T13:19:35;2.63;;;2.53;;
38487;SDS011;57384;51.986;4.458;2023-08-06T13:22:03;2.75;;;2.58;;
38487;SDS011;57384;51.986;4.458;2023-08-06T13:24:31;2.53;;;2.42;;
38487;SDS011;57384;51.986;4.458;2023-08-06T13:26:57;2.60;;;2.50;;
38487;SDS011;57384;51.986;4.458;2023-08-06T13:29:24;3.15;;;3.05;;
38487;SDS011;57384;51.986;4.458;2023-08-06T13:34:19;3.67;;;3.58;;
38487;SDS011;57384;51.986;4.458;2023-08-06T13:36:46;3.85;;;3.75;;
38487;SDS011;57384;51.986;4.458;2023-08-06T13:39:13;4.82;;;3.75;;
38487;SDS011;57384;51.986;4.458;2023-08-06T13:41:42;5.43;;;4.90;;
38487;SDS011;57384;51.986;4.458;2023-08-06T13:44:09;4.68;;;4.55;;
38487;SDS011;57384;51.986;4.458;2023-08-06T13:46:35;3.45;;;3.35;;
38487;SDS011;57384;51.986;4.458;2023-08-06T13:49:05;3.80;;;3.70;;
38487;SDS011;57384;51.986;4.458;2023-08-06T13:51:31;12.52;;;4.20;;
38487;SDS011;57384;51.986;4.458;2023-08-06T13:53:59;3.53;;;3.42;;
38487;SDS011;57384;51.986;4.458;2023-08-06T13:56:27;4.13;;;3.92;;
38487;SDS011;57384;51.986;4.458;2023-08-06T13:58:54;2.90;;;2.80;;
38487;SDS011;57384;51.986;4.458;2023-08-06T14:01:22;3.03;;;2.92;;
38487;SDS011;57384;51.986;4.458;2023-08-06T14:03:49;2.20;;;2.10;;
38487;SDS011;57384;51.986;4.458;2023-08-06T14:06:16;2.00;;;1.90;;
38487;SDS011;57384;51.986;4.458;2023-08-06T14:08:44;2.92;;;2.83;;
38487;SDS011;57384;51.986;4.458;2023-08-06T14:11:19;2.33;;;2.22;;
38487;SDS011;57384;51.986;4.458;2023-08-06T14:13:46;2.60;;;2.50;;
38487;SDS011;57384;51.986;4.458;2023-08-06T14:16:12;2.60;;;2.50;;
38487;SDS011;57384;51.986;4.458;2023-08-06T14:18:39;2.67;;;2.58;;
38487;SDS011;57384;51.986;4.458;2023-08-06T14:21:07;2.40;;;2.30;;
38487;SDS011;57384;51.986;4.458;2023-08-06T14:23:35;2.70;;;2.60;;
38487;SDS011;57384;51.986;4.458;2023-08-06T14:26:01;2.95;;;2.85;;
38487;SDS011;57384;51.986;4.458;2023-08-06T14:28:28;2.58;;;2.47;;
38487;SDS011;57384;51.986;4.458;2023-08-06T14:30:56;2.80;;;2.65;;
38487;SDS011;57384;51.986;4.458;2023-08-06T14:33:23;2.00;;;1.90;;
38487;SDS011;57384;51.986;4.458;2023-08-06T14:35:51;2.30;;;2.20;;
38487;SDS011;57384;51.986;4.458;2023-08-06T14:38:19;2.53;;;2.42;;
38487;SDS011;57384;51.986;4.458;2023-08-06T14:40:48;1.88;;;1.77;;
38487;SDS011;57384;51.986;4.458;2023-08-06T14:43:14;1.67;;;1.58;;
38487;SDS011;57384;51.986;4.458;2023-08-06T14:45:41;1.83;;;1.73;;
38487;SDS011;57384;51.986;4.458;2023-08-06T14:48:08;1.80;;;1.70;;
38487;SDS011;57384;51.986;4.458;2023-08-06T14:50:35;1.63;;;1.52;;
38487;SDS011;57384;51.986;4.458;2023-08-06T14:53:03;1.63;;;1.52;;
38487;SDS011;57384;51.986;4.458;2023-08-06T14:55:32;1.63;;;1.52;;
38487;SDS011;57384;51.986;4.458;2023-08-06T14:58:00;1.10;;;1.00;;
38487;SDS011;57384;51.986;4.458;2023-08-06T15:00:28;1.20;;;1.10;;
38487;SDS011;57384;51.986;4.458;2023-08-06T15:02:55;2.35;;;1.77;;
38487;SDS011;57384;51.986;4.458;2023-08-06T15:05:28;1.08;;;1.00;;
38487;SDS011;57384;51.986;4.458;2023-08-06T15:07:55;3.45;;;2.35;;
38487;SDS011;57384;51.986;4.458;2023-08-06T15:10:22;1.90;;;1.80;;
38487;SDS011;57384;51.986;4.458;2023-08-06T15:12:48;1.63;;;1.52;;
38487;SDS011;57384;51.986;4.458;2023-08-06T15:15:15;6.43;;;1.90;;
38487;SDS011;57384;51.986;4.458;2023-08-06T15:17:44;0.95;;;0.95;;
38487;SDS011;57384;51.986;4.458;2023-08-06T15:20:11;0.95;;;0.95;;
38487;SDS011;57384;51.986;4.458;2023-08-06T15:22:39;2.55;;;2.00;;
38487;SDS011;57384;51.986;4.458;2023-08-06T15:25:06;0.90;;;0.90;;
38487;SDS011;57384;51.986;4.458;2023-08-06T15:27:34;1.23;;;1.13;;